<?xml version="1.0" encoding="UTF-8" standalone="no" ?>
<gpx xmlns="http://www.topografix.com/GPX/1/1" xmlns:xsi="http://www.w3.org/2001/XMLSchema-instance" xsi:schemaLocation="http://www.topografix.com/GPX/1/1 http://www.topografix.com/GPX/1/1/gpx.xsd" version="1.1" creator="VisuGPX - https://www.visugpx.com">
  <metadata>
    <name>7214278-bois du nevet kerlaz1</name>
    <desc><![CDATA[File with points/tracks from Locus Map/3.36.2]]></desc>
  </metadata>
  <trk>
    <name><![CDATA[7214278-bois du nevet kerlaz1]]></name>
    <trkseg>
      <trkpt lat="48.08887" lon="-4.22852">
        <ele>136</ele>
        <time>2018-04-24T14:41:19.000Z</time>
      </trkpt>
      <trkpt lat="48.08861" lon="-4.22912">
        <ele>137</ele>
        <time>2018-04-24T14:42:19.000Z</time>
      </trkpt>
      <trkpt lat="48.08877" lon="-4.23026">
        <ele>138</ele>
        <time>2018-04-24T14:43:19.000Z</time>
      </trkpt>
      <trkpt lat="48.08865" lon="-4.23094">
        <ele>138</ele>
        <time>2018-04-24T14:44:19.000Z</time>
      </trkpt>
      <trkpt lat="48.08804" lon="-4.23249">
        <ele>134</ele>
        <time>2018-04-24T14:45:19.000Z</time>
      </trkpt>
      <trkpt lat="48.08833" lon="-4.23361">
        <ele>135</ele>
        <time>2018-04-24T14:46:19.000Z</time>
      </trkpt>
      <trkpt lat="48.08857" lon="-4.23648">
        <ele>137</ele>
        <time>2018-04-24T14:47:19.000Z</time>
      </trkpt>
      <trkpt lat="48.08886" lon="-4.23779">
        <ele>135</ele>
        <time>2018-04-24T14:48:19.000Z</time>
      </trkpt>
      <trkpt lat="48.0897" lon="-4.23882">
        <ele>132</ele>
        <time>2018-04-24T14:49:19.000Z</time>
      </trkpt>
      <trkpt lat="48.08977" lon="-4.23941">
        <ele>132</ele>
        <time>2018-04-24T14:50:19.000Z</time>
      </trkpt>
      <trkpt lat="48.08966" lon="-4.24049">
        <ele>136</ele>
        <time>2018-04-24T14:51:19.000Z</time>
      </trkpt>
      <trkpt lat="48.09043" lon="-4.24205">
        <ele>133</ele>
        <time>2018-04-24T14:52:19.000Z</time>
      </trkpt>
      <trkpt lat="48.09007" lon="-4.24237">
        <ele>131</ele>
        <time>2018-04-24T14:53:19.000Z</time>
      </trkpt>
      <trkpt lat="48.08997" lon="-4.24277">
        <ele>129</ele>
        <time>2018-04-24T14:54:19.000Z</time>
      </trkpt>
      <trkpt lat="48.08722" lon="-4.24391">
        <ele>124</ele>
        <time>2018-04-24T14:55:19.000Z</time>
      </trkpt>
      <trkpt lat="48.08663" lon="-4.24489">
        <ele>118</ele>
        <time>2018-04-24T14:56:19.000Z</time>
      </trkpt>
      <trkpt lat="48.08616" lon="-4.24717">
        <ele>115</ele>
        <time>2018-04-24T14:57:19.000Z</time>
      </trkpt>
      <trkpt lat="48.08646" lon="-4.24854">
        <ele>112</ele>
        <time>2018-04-24T14:58:19.000Z</time>
      </trkpt>
      <trkpt lat="48.08635" lon="-4.25036">
        <ele>108</ele>
        <time>2018-04-24T14:59:19.000Z</time>
      </trkpt>
      <trkpt lat="48.08676" lon="-4.25124">
        <ele>104</ele>
        <time>2018-04-24T15:00:19.000Z</time>
      </trkpt>
      <trkpt lat="48.08727" lon="-4.25284">
        <ele>103</ele>
        <time>2018-04-24T15:01:19.000Z</time>
      </trkpt>
      <trkpt lat="48.08788" lon="-4.25378">
        <ele>102</ele>
        <time>2018-04-24T15:02:19.000Z</time>
      </trkpt>
      <trkpt lat="48.08762" lon="-4.25386">
        <ele>103</ele>
        <time>2018-04-24T15:03:19.000Z</time>
      </trkpt>
      <trkpt lat="48.08756" lon="-4.25434">
        <ele>102</ele>
        <time>2018-04-24T15:04:19.000Z</time>
      </trkpt>
      <trkpt lat="48.0877" lon="-4.25509">
        <ele>101</ele>
        <time>2018-04-24T15:05:19.000Z</time>
      </trkpt>
      <trkpt lat="48.08793" lon="-4.25524">
        <ele>101</ele>
        <time>2018-04-24T15:06:19.000Z</time>
      </trkpt>
      <trkpt lat="48.08805" lon="-4.2555">
        <ele>101</ele>
        <time>2018-04-24T15:07:19.000Z</time>
      </trkpt>
      <trkpt lat="48.08805" lon="-4.25553">
        <ele>101</ele>
        <time>2018-04-24T15:08:19.000Z</time>
      </trkpt>
      <trkpt lat="48.08795" lon="-4.25579">
        <ele>101</ele>
        <time>2018-04-24T15:09:19.000Z</time>
      </trkpt>
      <trkpt lat="48.08805" lon="-4.25624">
        <ele>100</ele>
        <time>2018-04-24T15:10:19.000Z</time>
      </trkpt>
      <trkpt lat="48.08796" lon="-4.25655">
        <ele>99</ele>
        <time>2018-04-24T15:11:19.000Z</time>
      </trkpt>
      <trkpt lat="48.08775" lon="-4.25668">
        <ele>99</ele>
        <time>2018-04-24T15:12:19.000Z</time>
      </trkpt>
      <trkpt lat="48.08696" lon="-4.257">
        <ele>97</ele>
        <time>2018-04-24T15:13:19.000Z</time>
      </trkpt>
      <trkpt lat="48.0862" lon="-4.25873">
        <ele>86</ele>
        <time>2018-04-24T15:14:19.000Z</time>
      </trkpt>
      <trkpt lat="48.08675" lon="-4.25813">
        <ele>88</ele>
        <time>2018-04-24T15:15:19.000Z</time>
      </trkpt>
      <trkpt lat="48.08689" lon="-4.25826">
        <ele>89</ele>
        <time>2018-04-24T15:16:19.000Z</time>
      </trkpt>
      <trkpt lat="48.08694" lon="-4.25865">
        <ele>87</ele>
        <time>2018-04-24T15:17:19.000Z</time>
      </trkpt>
      <trkpt lat="48.08745" lon="-4.25915">
        <ele>90</ele>
        <time>2018-04-24T15:18:19.000Z</time>
      </trkpt>
      <trkpt lat="48.08792" lon="-4.25926">
        <ele>92</ele>
        <time>2018-04-24T15:19:19.000Z</time>
      </trkpt>
      <trkpt lat="48.08841" lon="-4.25938">
        <ele>94</ele>
        <time>2018-04-24T15:20:19.000Z</time>
      </trkpt>
      <trkpt lat="48.08878" lon="-4.25976">
        <ele>95</ele>
        <time>2018-04-24T15:21:19.000Z</time>
      </trkpt>
      <trkpt lat="48.0892" lon="-4.26215">
        <ele>92</ele>
        <time>2018-04-24T15:22:19.000Z</time>
      </trkpt>
      <trkpt lat="48.09147" lon="-4.26268">
        <ele>93</ele>
        <time>2018-04-24T15:23:19.000Z</time>
      </trkpt>
      <trkpt lat="48.09136" lon="-4.26734">
        <ele>85</ele>
        <time>2018-04-24T15:24:19.000Z</time>
      </trkpt>
      <trkpt lat="48.09066" lon="-4.27118">
        <ele>77</ele>
        <time>2018-04-24T15:25:19.000Z</time>
      </trkpt>
      <trkpt lat="48.09073" lon="-4.27197">
        <ele>77</ele>
        <time>2018-04-24T15:26:19.000Z</time>
      </trkpt>
      <trkpt lat="48.09098" lon="-4.27242">
        <ele>79</ele>
        <time>2018-04-24T15:27:19.000Z</time>
      </trkpt>
      <trkpt lat="48.09069" lon="-4.27265">
        <ele>77</ele>
        <time>2018-04-24T15:28:19.000Z</time>
      </trkpt>
      <trkpt lat="48.09061" lon="-4.27324">
        <ele>76</ele>
        <time>2018-04-24T15:29:19.000Z</time>
      </trkpt>
      <trkpt lat="48.09043" lon="-4.27349">
        <ele>74</ele>
        <time>2018-04-24T15:30:19.000Z</time>
      </trkpt>
      <trkpt lat="48.0904" lon="-4.2742">
        <ele>73</ele>
        <time>2018-04-24T15:31:19.000Z</time>
      </trkpt>
      <trkpt lat="48.08957" lon="-4.27423">
        <ele>66</ele>
        <time>2018-04-24T15:32:19.000Z</time>
      </trkpt>
      <trkpt lat="48.08869" lon="-4.27319">
        <ele>59</ele>
        <time>2018-04-24T15:33:19.000Z</time>
      </trkpt>
      <trkpt lat="48.08757" lon="-4.27411">
        <ele>43</ele>
        <time>2018-04-24T15:34:19.000Z</time>
      </trkpt>
      <trkpt lat="48.0862" lon="-4.27709">
        <ele>13</ele>
        <time>2018-04-24T15:35:19.000Z</time>
      </trkpt>
      <trkpt lat="48.08519" lon="-4.27538">
        <ele>13</ele>
        <time>2018-04-24T15:36:19.000Z</time>
      </trkpt>
      <trkpt lat="48.08481" lon="-4.27475">
        <ele>11</ele>
        <time>2018-04-24T15:37:19.000Z</time>
      </trkpt>
      <trkpt lat="48.08448" lon="-4.27341">
        <ele>13</ele>
        <time>2018-04-24T15:38:19.000Z</time>
      </trkpt>
      <trkpt lat="48.08507" lon="-4.27336">
        <ele>22</ele>
        <time>2018-04-24T15:39:19.000Z</time>
      </trkpt>
      <trkpt lat="48.08595" lon="-4.27266">
        <ele>37</ele>
        <time>2018-04-24T15:40:19.000Z</time>
      </trkpt>
      <trkpt lat="48.08591" lon="-4.27215">
        <ele>34</ele>
        <time>2018-04-24T15:41:19.000Z</time>
      </trkpt>
      <trkpt lat="48.08635" lon="-4.2706">
        <ele>35</ele>
        <time>2018-04-24T15:42:19.000Z</time>
      </trkpt>
      <trkpt lat="48.08603" lon="-4.26941">
        <ele>31</ele>
        <time>2018-04-24T15:43:19.000Z</time>
      </trkpt>
      <trkpt lat="48.08576" lon="-4.26908">
        <ele>28</ele>
        <time>2018-04-24T15:44:19.000Z</time>
      </trkpt>
      <trkpt lat="48.08314" lon="-4.26961">
        <ele>15</ele>
        <time>2018-04-24T15:45:19.000Z</time>
      </trkpt>
      <trkpt lat="48.08345" lon="-4.26804">
        <ele>27</ele>
        <time>2018-04-24T15:46:19.000Z</time>
      </trkpt>
      <trkpt lat="48.08405" lon="-4.26696">
        <ele>30</ele>
        <time>2018-04-24T15:47:19.000Z</time>
      </trkpt>
      <trkpt lat="48.08354" lon="-4.26491">
        <ele>64</ele>
        <time>2018-04-24T15:48:19.000Z</time>
      </trkpt>
      <trkpt lat="48.08253" lon="-4.26547">
        <ele>64</ele>
        <time>2018-04-24T15:49:19.000Z</time>
      </trkpt>
      <trkpt lat="48.08137" lon="-4.26532">
        <ele>57</ele>
        <time>2018-04-24T15:50:19.000Z</time>
      </trkpt>
      <trkpt lat="48.08078" lon="-4.26519">
        <ele>53</ele>
        <time>2018-04-24T15:51:19.000Z</time>
      </trkpt>
      <trkpt lat="48.08" lon="-4.26461">
        <ele>51</ele>
        <time>2018-04-24T15:52:19.000Z</time>
      </trkpt>
      <trkpt lat="48.07952" lon="-4.26375">
        <ele>52</ele>
        <time>2018-04-24T15:53:19.000Z</time>
      </trkpt>
      <trkpt lat="48.07907" lon="-4.2636">
        <ele>48</ele>
        <time>2018-04-24T15:54:19.000Z</time>
      </trkpt>
      <trkpt lat="48.07805" lon="-4.2639">
        <ele>32</ele>
        <time>2018-04-24T15:55:19.000Z</time>
      </trkpt>
      <trkpt lat="48.07756" lon="-4.2633">
        <ele>28</ele>
        <time>2018-04-24T15:56:19.000Z</time>
      </trkpt>
      <trkpt lat="48.07759" lon="-4.26167">
        <ele>33</ele>
        <time>2018-04-24T15:57:19.000Z</time>
      </trkpt>
      <trkpt lat="48.07812" lon="-4.26178">
        <ele>41</ele>
        <time>2018-04-24T15:58:19.000Z</time>
      </trkpt>
      <trkpt lat="48.07834" lon="-4.26164">
        <ele>45</ele>
        <time>2018-04-24T15:59:19.000Z</time>
      </trkpt>
      <trkpt lat="48.07846" lon="-4.26036">
        <ele>53</ele>
        <time>2018-04-24T16:00:19.000Z</time>
      </trkpt>
      <trkpt lat="48.07831" lon="-4.25652">
        <ele>70</ele>
        <time>2018-04-24T16:01:19.000Z</time>
      </trkpt>
      <trkpt lat="48.07812" lon="-4.25592">
        <ele>70</ele>
        <time>2018-04-24T16:02:19.000Z</time>
      </trkpt>
      <trkpt lat="48.07766" lon="-4.25549">
        <ele>68</ele>
        <time>2018-04-24T16:03:19.000Z</time>
      </trkpt>
      <trkpt lat="48.07747" lon="-4.25524">
        <ele>66</ele>
        <time>2018-04-24T16:04:19.000Z</time>
      </trkpt>
      <trkpt lat="48.07747" lon="-4.25495">
        <ele>67</ele>
        <time>2018-04-24T16:05:19.000Z</time>
      </trkpt>
      <trkpt lat="48.07723" lon="-4.25428">
        <ele>73</ele>
        <time>2018-04-24T16:06:19.000Z</time>
      </trkpt>
      <trkpt lat="48.07709" lon="-4.25363">
        <ele>72</ele>
        <time>2018-04-24T16:07:19.000Z</time>
      </trkpt>
      <trkpt lat="48.0772" lon="-4.25309">
        <ele>74</ele>
        <time>2018-04-24T16:08:19.000Z</time>
      </trkpt>
      <trkpt lat="48.07808" lon="-4.25221">
        <ele>85</ele>
        <time>2018-04-24T16:09:19.000Z</time>
      </trkpt>
      <trkpt lat="48.07819" lon="-4.25164">
        <ele>87</ele>
        <time>2018-04-24T16:10:19.000Z</time>
      </trkpt>
      <trkpt lat="48.07865" lon="-4.25157">
        <ele>90</ele>
        <time>2018-04-24T16:11:19.000Z</time>
      </trkpt>
      <trkpt lat="48.07923" lon="-4.25124">
        <ele>93</ele>
        <time>2018-04-24T16:12:19.000Z</time>
      </trkpt>
      <trkpt lat="48.08032" lon="-4.25143">
        <ele>99</ele>
        <time>2018-04-24T16:13:19.000Z</time>
      </trkpt>
      <trkpt lat="48.0812" lon="-4.25127">
        <ele>105</ele>
        <time>2018-04-24T16:14:19.000Z</time>
      </trkpt>
      <trkpt lat="48.08172" lon="-4.25028">
        <ele>110</ele>
        <time>2018-04-24T16:15:19.000Z</time>
      </trkpt>
      <trkpt lat="48.08182" lon="-4.24888">
        <ele>114</ele>
        <time>2018-04-24T16:16:19.000Z</time>
      </trkpt>
      <trkpt lat="48.08252" lon="-4.24779">
        <ele>117</ele>
        <time>2018-04-24T16:17:19.000Z</time>
      </trkpt>
      <trkpt lat="48.08186" lon="-4.24662">
        <ele>114</ele>
        <time>2018-04-24T16:18:19.000Z</time>
      </trkpt>
      <trkpt lat="48.07965" lon="-4.24739">
        <ele>97</ele>
        <time>2018-04-24T16:19:19.000Z</time>
      </trkpt>
      <trkpt lat="48.0794" lon="-4.24542">
        <ele>93</ele>
        <time>2018-04-24T16:20:19.000Z</time>
      </trkpt>
      <trkpt lat="48.07951" lon="-4.24447">
        <ele>92</ele>
        <time>2018-04-24T16:21:19.000Z</time>
      </trkpt>
      <trkpt lat="48.07885" lon="-4.24379">
        <ele>88</ele>
        <time>2018-04-24T16:22:19.000Z</time>
      </trkpt>
      <trkpt lat="48.07779" lon="-4.24452">
        <ele>81</ele>
        <time>2018-04-24T16:23:19.000Z</time>
      </trkpt>
      <trkpt lat="48.07684" lon="-4.24473">
        <ele>68</ele>
        <time>2018-04-24T16:24:19.000Z</time>
      </trkpt>
      <trkpt lat="48.07661" lon="-4.24422">
        <ele>65</ele>
        <time>2018-04-24T16:25:19.000Z</time>
      </trkpt>
      <trkpt lat="48.07704" lon="-4.24362">
        <ele>73</ele>
        <time>2018-04-24T16:26:19.000Z</time>
      </trkpt>
      <trkpt lat="48.0765" lon="-4.24366">
        <ele>67</ele>
        <time>2018-04-24T16:27:19.000Z</time>
      </trkpt>
      <trkpt lat="48.07532" lon="-4.24186">
        <ele>57</ele>
        <time>2018-04-24T16:28:19.000Z</time>
      </trkpt>
      <trkpt lat="48.08513" lon="-4.23679">
        <ele>131</ele>
        <time>2018-04-24T16:29:19.000Z</time>
      </trkpt>
      <trkpt lat="48.08831" lon="-4.22928">
        <ele>138</ele>
        <time>2018-04-24T16:30:19.000Z</time>
      </trkpt>
    </trkseg>
  </trk>
</gpx>